Brewster, Nebraska
Current Conditions -  °F | °C
As of 7:35 PM on Thursday 27 Nov 2014 (Local Time) from KTIF Reporting Station
Clear Clear  
Wind Chill: 34°   Ceiling: Unl
Heat Index: 41°   Visibility: 10mi
Dew Point: 25°   Wind: 14mph
Humidity: 53%   Direction: 190°S
Pressure: 29.97"   Gusts: NA
Location:  41.94°N, 99.86°W
Report Text: KTIF 280135Z AUTO 19012KT 10SM CLR 05/M04 A2997 RMK AO2 T00521038
Loading
Personal Weather Stations






























Interactive Weather Map New forecast layout! Learn more

10-Day Weather Forecast

Advertisements
Track Severe Weather on mobile